createdAt,value
2019-06-01T00:01:32.239Z,16.63
2019-06-01T00:04:02.885Z,19.03
2019-06-01T00:06:33.423Z,18.93
2019-06-01T00:09:05.255Z,20.73
2019-06-01T00:11:35.970Z,16.43
2019-06-01T00:14:08.156Z,22.60
2019-06-01T00:16:39.947Z,16.60
2019-06-01T00:19:10.554Z,18.37
2019-06-01T00:21:41.220Z,18.03
2019-06-01T00:24:12.780Z,16.00
2019-06-01T00:26:43.682Z,22.60
2019-06-01T00:29:14.386Z,18.57
2019-06-01T00:31:46.110Z,17.40
2019-06-01T00:34:16.659Z,22.17
2019-06-01T00:36:47.825Z,22.67
2019-06-01T00:39:18.376Z,20.53
2019-06-01T00:41:50.153Z,23.87
2019-06-01T00:44:20.846Z,23.17
2019-06-01T00:46:51.356Z,26.00
2019-06-01T00:49:21.919Z,21.23
2019-06-01T00:51:53.786Z,23.03
2019-06-01T00:54:24.518Z,20.53
2019-06-01T00:56:55.080Z,23.93
2019-06-01T00:59:25.671Z,24.67
2019-06-01T01:01:56.228Z,23.47
2019-06-01T01:04:26.833Z,20.53
2019-06-01T01:06:57.418Z,23.93
2019-06-01T01:09:28.074Z,22.30
2019-06-01T01:11:58.712Z,23.87
2019-06-01T01:14:29.203Z,32.07
2019-06-01T01:16:59.838Z,25.37
2019-06-01T01:19:30.317Z,22.63
2019-06-01T01:22:00.807Z,27.23
2019-06-01T01:24:31.467Z,24.03
2019-06-01T01:27:02.057Z,27.27
2019-06-01T01:29:32.854Z,20.70
2019-06-01T01:32:03.586Z,29.63
2019-06-01T01:34:34.338Z,22.83
2019-06-01T01:37:04.847Z,22.70
2019-06-01T01:39:35.502Z,22.67
2019-06-01T01:42:06.155Z,22.27
2019-06-01T01:44:36.689Z,23.33
2019-06-01T01:47:07.250Z,22.27
2019-06-01T01:49:37.812Z,22.10
2019-06-01T01:52:08.377Z,25.17
2019-06-01T01:54:38.948Z,26.50
2019-06-01T01:57:09.569Z,23.20
2019-06-01T01:59:41.114Z,23.50
2019-06-01T02:02:12.133Z,29.33
2019-06-01T02:04:42.752Z,26.20
2019-06-01T02:07:13.310Z,26.83
2019-06-01T02:09:43.920Z,29.27
2019-06-01T02:12:14.404Z,28.10
2019-06-01T02:14:44.994Z,29.40
2019-06-01T02:17:15.541Z,29.13
2019-06-01T02:19:46.066Z,26.20
2019-06-01T02:22:16.514Z,28.23
2019-06-01T02:24:47.086Z,26.57
2019-06-01T02:27:17.618Z,28.00
2019-06-01T02:29:48.232Z,27.73
2019-06-01T02:32:18.734Z,29.30
2019-06-01T02:34:49.391Z,28.93
2019-06-01T02:37:20.022Z,27.07
2019-06-01T02:39:51.679Z,27.07
2019-06-01T02:42:22.277Z,31.70
2019-06-01T02:44:52.775Z,25.87
2019-06-01T02:47:23.334Z,25.90
2019-06-01T02:49:55.523Z,29.40
2019-06-01T02:52:26.271Z,29.07
2019-06-01T02:54:57.767Z,30.03
2019-06-01T02:57:28.340Z,32.90
2019-06-01T02:59:59.012Z,32.73
2019-06-01T03:02:30.198Z,38.03
2019-06-01T03:05:01.225Z,35.90
2019-06-01T03:07:34.258Z,30.93
2019-06-01T03:10:05.459Z,33.80
2019-06-01T03:12:41.346Z,34.20
2019-06-01T03:15:14.002Z,35.40
2019-06-01T03:17:47.780Z,32.13
2019-06-01T03:20:18.684Z,34.27
2019-06-01T03:22:56.552Z,31.27
2019-06-01T03:25:29.002Z,29.60
2019-06-01T03:28:10.371Z,31.93
2019-06-01T03:30:45.458Z,30.43
2019-06-01T03:33:15.791Z,28.40
2019-06-01T03:35:46.386Z,27.33
2019-06-01T03:38:16.911Z,31.23
2019-06-01T03:40:49.643Z,30.07
2019-06-01T03:43:21.497Z,25.40
2019-06-01T03:45:52.042Z,26.23
2019-06-01T03:48:22.616Z,28.73
2019-06-01T03:50:53.239Z,23.37
2019-06-01T03:53:23.912Z,25.40
2019-06-01T03:55:54.500Z,26.90
2019-06-01T03:58:25.201Z,26.40
2019-06-01T04:00:55.810Z,24.17
2019-06-01T04:03:27.987Z,26.27
2019-06-01T04:05:59.661Z,27.53
2019-06-01T04:08:30.351Z,24.77
2019-06-01T04:11:01.411Z,30.63
2019-06-01T04:13:32.217Z,29.83
2019-06-01T04:16:05.849Z,30.13
2019-06-01T04:18:36.597Z,30.47
2019-06-01T04:21:08.148Z,31.23
2019-06-01T04:23:38.836Z,24.43
2019-06-01T04:26:10.350Z,21.70
2019-06-01T04:28:41.306Z,30.53
2019-06-01T04:31:12.823Z,24.73
2019-06-01T04:33:43.409Z,25.13
2019-06-01T04:36:14.225Z,24.90
2019-06-01T04:38:44.763Z,27.27
2019-06-01T04:41:15.411Z,23.63
2019-06-01T04:43:45.911Z,29.80
2019-06-01T04:46:16.561Z,25.27
2019-06-01T04:48:47.100Z,30.30
2019-06-01T04:51:17.747Z,28.53
2019-06-01T04:53:48.275Z,22.13
2019-06-01T04:56:19.739Z,22.73
2019-06-01T04:58:50.268Z,19.87
2019-06-01T05:01:20.753Z,21.63
2019-06-01T05:03:51.253Z,18.73
2019-06-01T05:06:21.999Z,19.80
2019-06-01T05:08:52.533Z,25.25
2019-06-01T05:11:24.178Z,22.15
2019-06-01T05:13:54.667Z,19.07
2019-06-01T05:16:25.563Z,27.58
2019-06-01T05:18:56.095Z,19.67
2019-06-01T05:21:26.631Z,21.85
2019-06-01T05:23:57.197Z,24.50
2019-06-01T05:26:27.772Z,19.45
2019-06-01T05:28:58.504Z,17.77
2019-06-01T05:31:29.065Z,21.77
2019-06-01T05:33:59.683Z,22.05
2019-06-01T05:36:30.379Z,16.90
2019-06-01T05:39:02.125Z,20.52
2019-06-01T05:41:33.001Z,16.95
2019-06-01T05:44:05.273Z,21.02
2019-06-01T05:46:37.177Z,20.30
2019-06-01T05:49:07.925Z,23.20
2019-06-01T05:51:40.109Z,16.57
2019-06-01T05:54:10.683Z,18.02
2019-06-01T05:56:41.267Z,16.67
2019-06-01T05:59:15.927Z,13.60
2019-06-01T06:01:46.589Z,13.60
2019-06-01T06:04:17.563Z,14.05
2019-06-01T06:06:48.373Z,17.05
2019-06-01T06:09:20.164Z,19.02
2019-06-01T06:11:53.797Z,18.27
2019-06-01T06:14:23.256Z,18.40
2019-06-01T06:16:53.864Z,21.37
2019-06-01T06:19:24.406Z,20.85
2019-06-01T06:21:56.806Z,20.23
2019-06-01T06:24:27.374Z,21.80
2019-06-01T06:26:57.931Z,18.67
2019-06-01T06:29:28.482Z,19.12
2019-06-01T06:31:59.160Z,19.52
2019-06-01T06:34:29.699Z,16.90
2019-06-01T06:37:00.587Z,18.27
2019-06-01T06:39:31.301Z,17.27
2019-06-01T06:42:02.252Z,17.65
2019-06-01T06:44:33.966Z,16.37
2019-06-01T06:47:04.582Z,14.15
2019-06-01T06:49:36.359Z,14.50
2019-06-01T06:52:07.584Z,12.93
2019-06-01T06:54:42.654Z,12.15
2019-06-01T06:57:13.225Z,11.20
2019-06-01T06:59:43.895Z,11.83
2019-06-01T07:02:14.523Z,12.00
2019-06-01T07:04:47.360Z,15.83
2019-06-01T07:07:18.012Z,12.30
2019-06-01T07:09:48.721Z,10.23
2019-06-01T07:12:21.158Z,17.40
2019-06-01T07:14:51.957Z,12.45
2019-06-01T07:17:23.530Z,12.07
2019-06-01T07:19:54.297Z,15.50
2019-06-01T07:22:25.813Z,12.03
2019-06-01T07:24:56.489Z,10.03
2019-06-01T07:27:28.344Z,9.40
2019-06-01T07:29:58.908Z,8.80
2019-06-01T07:32:29.546Z,11.08
2019-06-01T07:35:01.121Z,12.82
2019-06-01T07:37:32.746Z,11.73
2019-06-01T07:40:03.597Z,10.50
2019-06-01T07:42:34.360Z,9.93
2019-06-01T07:45:04.907Z,13.00
2019-06-01T07:47:35.515Z,12.55
2019-06-01T07:50:06.328Z,10.45
2019-06-01T07:52:36.995Z,9.87
2019-06-01T07:55:07.864Z,10.98
2019-06-01T07:57:42.514Z,14.47
2019-06-01T08:00:10.849Z,9.75
2019-06-01T08:02:41.518Z,11.23
2019-06-01T08:05:12.215Z,10.78
2019-06-01T08:07:42.881Z,13.25
2019-06-01T08:10:13.698Z,10.90
2019-06-01T08:12:44.210Z,11.48
2019-06-01T08:15:15.245Z,9.98
2019-06-01T08:17:45.922Z,13.33
2019-06-01T08:20:16.513Z,11.13
2019-06-01T08:22:47.102Z,9.67
2019-06-01T08:25:17.667Z,9.77
2019-06-01T08:27:49.505Z,11.40
2019-06-01T08:30:20.259Z,12.67
2019-06-01T08:32:50.922Z,11.77
2019-06-01T08:35:22.745Z,11.97
2019-06-01T08:37:53.466Z,9.07
2019-06-01T08:40:25.189Z,9.00
2019-06-01T08:42:55.854Z,9.27
2019-06-01T08:45:27.570Z,9.07
2019-06-01T08:47:58.131Z,9.57
2019-06-01T08:50:29.806Z,9.00
2019-06-01T08:53:01.533Z,10.50
2019-06-01T08:55:32.341Z,8.80
2019-06-01T08:58:03.051Z,8.47
2019-06-01T09:00:34.723Z,8.10
2019-06-01T09:03:05.536Z,9.57
2019-06-01T09:05:36.120Z,9.53
2019-06-01T09:08:06.730Z,9.33
2019-06-01T09:10:37.247Z,8.77
2019-06-01T09:13:07.738Z,9.00
2019-06-01T09:15:38.413Z,9.17
2019-06-01T09:18:08.948Z,11.80
2019-06-01T09:20:39.541Z,8.47
2019-06-01T09:23:10.191Z,8.87
2019-06-01T09:25:40.853Z,8.40
2019-06-01T09:28:11.441Z,7.60
2019-06-01T09:30:42.033Z,9.30
2019-06-01T09:33:12.511Z,6.57
2019-06-01T09:35:54.525Z,6.90
2019-06-01T09:38:15.383Z,8.73
2019-06-01T09:40:46.092Z,7.87
2019-06-01T09:43:16.503Z,8.13
2019-06-01T09:45:47.237Z,8.47
2019-06-01T09:48:17.748Z,8.13
2019-06-01T09:50:48.407Z,8.60
2019-06-01T09:53:18.900Z,7.83
2019-06-01T09:55:49.619Z,7.43
2019-06-01T09:58:20.267Z,8.13
2019-06-01T10:00:50.946Z,7.40
2019-06-01T10:03:21.722Z,9.87
2019-06-01T10:06:01.472Z,6.73
2019-06-01T10:08:24.499Z,8.37
2019-06-01T10:10:55.123Z,8.93
2019-06-01T10:13:25.733Z,7.17
2019-06-01T10:15:56.496Z,9.80
2019-06-01T10:18:27.312Z,9.57
2019-06-01T10:20:57.851Z,10.20
2019-06-01T10:23:30.034Z,9.55
2019-06-01T10:26:00.680Z,8.20
2019-06-01T10:28:31.595Z,9.60
2019-06-01T10:31:02.316Z,8.43
2019-06-01T10:33:32.976Z,11.13
2019-06-01T10:36:19.136Z,6.47
2019-06-01T10:38:37.015Z,8.57
2019-06-01T10:41:08.017Z,7.53
2019-06-01T10:43:39.752Z,13.43
2019-06-01T10:46:10.697Z,8.50
2019-06-01T10:48:42.194Z,7.10
2019-06-01T10:51:12.890Z,7.30
2019-06-01T10:53:43.873Z,6.73
2019-06-01T10:56:14.707Z,8.13
2019-06-01T10:58:59.286Z,8.13
2019-06-01T11:01:17.612Z,8.13
2019-06-01T11:03:48.212Z,9.97
2019-06-01T11:06:33.687Z,5.37
2019-06-01T11:08:52.051Z,6.20
2019-06-01T11:11:22.652Z,6.37
2019-06-01T11:13:53.326Z,6.23
2019-06-01T11:16:23.874Z,7.07
2019-06-01T11:18:54.447Z,7.60
2019-06-01T11:21:24.993Z,5.07
2019-06-01T11:23:55.603Z,5.67
2019-06-01T11:26:26.076Z,6.13
2019-06-01T11:28:56.665Z,6.20
2019-06-01T11:31:27.329Z,6.07
2019-06-01T11:33:57.935Z,5.27
2019-06-01T11:36:28.442Z,5.93
2019-06-01T11:38:59.052Z,5.03
2019-06-01T11:41:29.554Z,6.77
2019-06-01T11:44:00.238Z,4.97
2019-06-01T11:46:30.813Z,4.75
2019-06-01T11:49:01.823Z,9.30
2019-06-01T11:51:32.510Z,5.35
2019-06-01T11:54:03.212Z,6.60
2019-06-01T11:56:35.091Z,5.20
2019-06-01T11:59:06.058Z,5.90
2019-06-01T12:01:37.752Z,5.67
2019-06-01T12:04:08.458Z,4.65
2019-06-01T12:06:44.082Z,5.70
2019-06-01T12:09:14.774Z,5.62
2019-06-01T12:11:46.405Z,9.70
2019-06-01T12:14:18.277Z,4.93
2019-06-01T12:16:48.819Z,5.72
2019-06-01T12:19:19.364Z,5.37
2019-06-01T12:21:49.975Z,6.20
2019-06-01T12:24:25.518Z,4.92
2019-06-01T12:26:52.837Z,6.70
2019-06-01T12:29:23.434Z,4.90
2019-06-01T12:31:53.964Z,6.37
2019-06-01T12:34:24.562Z,6.17
2019-06-01T12:36:55.153Z,5.22
2019-06-01T12:39:25.758Z,5.60
2019-06-01T12:41:56.468Z,5.12
2019-06-01T12:44:27.152Z,6.97
2019-06-01T12:46:59.164Z,4.45
2019-06-01T12:49:29.900Z,7.05
2019-06-01T12:52:00.385Z,5.17
2019-06-01T12:54:31.608Z,4.97
2019-06-01T12:57:02.255Z,5.40
2019-06-01T12:59:32.966Z,6.03
2019-06-01T13:02:03.585Z,5.10
2019-06-01T13:04:34.214Z,7.20
2019-06-01T13:07:04.894Z,5.60
2019-06-01T13:09:35.517Z,6.37
2019-06-01T13:12:06.099Z,6.07
2019-06-01T13:14:36.634Z,5.83
2019-06-01T13:17:09.215Z,4.97
2019-06-01T13:19:41.166Z,5.58
2019-06-01T13:22:11.946Z,5.83
2019-06-01T13:24:43.675Z,7.87
2019-06-01T13:27:14.290Z,6.93
2019-06-01T13:29:45.800Z,7.33
2019-06-01T13:32:16.423Z,7.60
2019-06-01T13:34:47.206Z,5.00
2019-06-01T13:37:17.896Z,7.20
2019-06-01T13:39:54.385Z,7.70
2019-06-01T13:42:20.702Z,6.73
2019-06-01T13:44:51.636Z,5.33
2019-06-01T13:47:22.264Z,5.27
2019-06-01T13:49:54.153Z,6.60
2019-06-01T13:52:25.099Z,5.87
2019-06-01T13:54:55.626Z,5.97
2019-06-01T13:57:26.170Z,7.47
2019-06-01T13:59:56.782Z,5.27
2019-06-01T14:02:27.266Z,6.87
2019-06-01T14:04:57.825Z,7.97
2019-06-01T14:07:28.502Z,5.23
2019-06-01T14:09:59.004Z,7.27
2019-06-01T14:12:29.591Z,4.60
2019-06-01T14:15:00.276Z,7.00
2019-06-01T14:17:31.884Z,6.47
2019-06-01T14:20:02.499Z,4.47
2019-06-01T14:22:33.028Z,11.60
2019-06-01T14:25:12.897Z,6.20
2019-06-01T14:27:35.921Z,7.28
2019-06-01T14:30:07.136Z,6.12
2019-06-01T14:32:37.850Z,6.90
2019-06-01T14:35:08.615Z,5.75
2019-06-01T14:37:40.113Z,4.75
2019-06-01T14:40:11.014Z,5.28
2019-06-01T14:42:41.746Z,6.03
2019-06-01T14:45:12.530Z,7.35
2019-06-01T14:47:43.003Z,5.33
2019-06-01T14:50:14.207Z,4.70
2019-06-01T14:52:47.609Z,5.83
2019-06-01T14:55:17.679Z,4.50
2019-06-01T14:57:48.593Z,5.58
2019-06-01T15:00:21.561Z,5.27
2019-06-01T15:02:52.262Z,5.70
2019-06-01T15:05:22.868Z,5.63
2019-06-01T15:07:54.248Z,5.57
2019-06-01T15:10:28.832Z,5.10
2019-06-01T15:13:03.035Z,6.07
2019-06-01T15:15:32.733Z,5.67
2019-06-01T15:18:05.327Z,6.07
2019-06-01T15:20:35.494Z,6.70
2019-06-01T15:23:06.224Z,5.70
2019-06-01T15:25:36.830Z,6.43
2019-06-01T15:28:08.788Z,6.33
2019-06-01T15:30:39.430Z,5.87
2019-06-01T15:33:10.100Z,6.07
2019-06-01T15:35:42.490Z,6.07
2019-06-01T15:38:13.083Z,6.90
2019-06-01T15:40:43.740Z,5.97
2019-06-01T15:43:14.314Z,6.07
2019-06-01T15:45:45.412Z,5.67
2019-06-01T15:48:18.345Z,6.23
2019-06-01T15:50:48.905Z,5.27
2019-06-01T15:53:19.593Z,7.70
2019-06-01T15:55:52.646Z,6.67
2019-06-01T15:58:23.765Z,6.27
2019-06-01T16:00:54.954Z,7.83
2019-06-01T16:03:26.924Z,6.30
2019-06-01T16:05:59.100Z,9.33
2019-06-01T16:08:29.756Z,11.97
2019-06-01T16:11:04.389Z,7.67
2019-06-01T16:13:32.718Z,5.97
2019-06-01T16:16:04.803Z,6.80
2019-06-01T16:18:35.916Z,8.37
2019-06-01T16:21:06.639Z,7.03
2019-06-01T16:23:49.547Z,5.77
2019-06-01T16:26:16.169Z,10.08
2019-06-01T16:28:41.696Z,7.10
2019-06-01T16:31:12.218Z,7.10
2019-06-01T16:33:42.902Z,5.00
2019-06-01T16:36:13.501Z,6.30
2019-06-01T16:38:44.031Z,7.40
2019-06-01T16:41:14.750Z,5.60
2019-06-01T16:43:45.508Z,7.23
2019-06-01T16:46:16.204Z,5.50
2019-06-01T16:48:46.834Z,8.20
2019-06-01T16:51:17.434Z,6.53
2019-06-01T16:53:47.989Z,5.87
2019-06-01T16:56:19.135Z,7.40
2019-06-01T16:58:49.739Z,6.93
2019-06-01T17:01:20.310Z,9.10
2019-06-01T17:03:52.907Z,8.13
2019-06-01T17:06:23.620Z,5.50
2019-06-01T17:08:54.168Z,6.33
2019-06-01T17:11:24.684Z,8.20
2019-06-01T17:13:56.613Z,6.53
2019-06-01T17:16:29.241Z,9.50
2019-06-01T17:19:00.975Z,7.67
2019-06-01T17:21:33.440Z,6.77
2019-06-01T17:24:04.023Z,6.27
2019-06-01T17:26:34.719Z,6.73
2019-06-01T17:29:06.173Z,5.90
2019-06-01T17:31:51.308Z,7.33
2019-06-01T17:34:11.532Z,8.17
2019-06-01T17:36:42.868Z,6.63
2019-06-01T17:39:13.537Z,10.90
2019-06-01T17:41:44.132Z,8.50
2019-06-01T17:44:15.157Z,9.27
2019-06-01T17:46:53.525Z,9.20
2019-06-01T17:49:17.991Z,11.37
2019-06-01T17:51:48.522Z,7.17
2019-06-01T17:54:20.672Z,8.90
2019-06-01T17:56:51.852Z,8.97
2019-06-01T17:59:23.499Z,6.97
2019-06-01T18:01:54.033Z,11.37
2019-06-01T18:04:25.756Z,10.50
2019-06-01T18:06:57.506Z,8.27
2019-06-01T18:09:30.175Z,10.00
2019-06-01T18:12:01.860Z,10.57
2019-06-01T18:14:32.642Z,13.10
2019-06-01T18:17:06.070Z,14.07
2019-06-01T18:19:36.696Z,12.13
2019-06-01T18:22:07.353Z,10.10
2019-06-01T18:24:41.775Z,10.67
2019-06-01T18:27:12.841Z,12.83
2019-06-01T18:29:48.314Z,10.67
2019-06-01T18:32:16.935Z,10.57
2019-06-01T18:34:48.945Z,10.57
2019-06-01T18:37:19.444Z,7.60
2019-06-01T18:39:50.675Z,7.40
2019-06-01T18:42:24.796Z,12.00
2019-06-01T18:44:55.339Z,11.50
2019-06-01T18:47:32.283Z,8.87
2019-06-01T18:50:00.869Z,10.80
2019-06-01T18:52:34.204Z,11.13
2019-06-01T18:55:06.420Z,9.20
2019-06-01T18:57:41.346Z,12.73
2019-06-01T19:00:15.660Z,11.50
2019-06-01T19:02:50.297Z,10.40
2019-06-01T19:05:20.838Z,11.70
2019-06-01T19:07:53.313Z,11.87
2019-06-01T19:10:23.895Z,10.90
2019-06-01T19:12:54.599Z,9.67
2019-06-01T19:15:28.527Z,14.53
2019-06-01T19:17:57.368Z,10.80
2019-06-01T19:20:27.948Z,12.97
2019-06-01T19:22:58.661Z,12.00
2019-06-01T19:25:29.104Z,11.97
2019-06-01T19:28:00.850Z,15.07
2019-06-01T19:30:39.256Z,11.50
2019-06-01T19:33:15.397Z,16.57
2019-06-01T19:35:44.671Z,10.17
2019-06-01T19:38:15.533Z,11.03
2019-06-01T19:40:46.602Z,10.77
2019-06-01T19:43:17.701Z,12.67
2019-06-01T19:45:48.450Z,17.47
2019-06-01T19:48:20.001Z,14.37
2019-06-01T19:50:50.767Z,14.73
2019-06-01T19:53:21.467Z,14.47
2019-06-01T19:55:52.600Z,23.57
2019-06-01T19:58:23.220Z,25.77
2019-06-01T20:00:53.867Z,34.67
2019-06-01T20:03:24.592Z,50.67
2019-06-01T20:05:56.276Z,47.57
2019-06-01T20:08:27.069Z,45.93
2019-06-01T20:10:57.538Z,35.07
2019-06-01T20:13:28.209Z,33.40
2019-06-01T20:15:59.449Z,20.33
2019-06-01T20:18:32.203Z,20.20
2019-06-01T20:21:02.999Z,15.10
2019-06-01T20:23:34.956Z,17.07
2019-06-01T20:26:05.922Z,21.43
2019-06-01T20:28:36.749Z,18.90
2019-06-01T20:31:07.439Z,19.37
2019-06-01T20:33:38.051Z,18.40
2019-06-01T20:36:09.806Z,25.03
2019-06-01T20:38:40.549Z,20.40
2019-06-01T20:41:16.889Z,27.17
2019-06-01T20:43:47.639Z,24.20
2019-06-01T20:46:18.844Z,23.37
2019-06-01T20:48:50.171Z,39.40
2019-06-01T20:51:21.298Z,32.83
2019-06-01T20:53:52.813Z,31.73
2019-06-01T20:56:25.547Z,31.83
2019-06-01T20:58:56.363Z,19.03
2019-06-01T21:01:26.969Z,23.23
2019-06-01T21:03:59.207Z,18.73
2019-06-01T21:06:29.771Z,22.67
2019-06-01T21:09:00.518Z,27.47
2019-06-01T21:11:32.248Z,25.37
2019-06-01T21:14:03.083Z,24.60
2019-06-01T21:16:33.717Z,29.67
2019-06-01T21:19:04.909Z,33.47
2019-06-01T21:21:35.594Z,32.93
2019-06-01T21:24:06.431Z,28.17
2019-06-01T21:26:37.255Z,22.77
2019-06-01T21:29:07.970Z,22.53
2019-06-01T21:31:38.624Z,19.67
2019-06-01T21:34:09.409Z,19.30
2019-06-01T21:36:41.884Z,20.47
2019-06-01T21:39:15.342Z,18.33
2019-06-01T21:41:46.443Z,16.60
2019-06-01T21:44:17.417Z,24.40
2019-06-01T21:46:49.071Z,31.07
2019-06-01T21:49:20.420Z,35.13
2019-06-01T21:51:53.120Z,40.40
2019-06-01T21:54:24.636Z,44.60
2019-06-01T21:56:55.542Z,45.87
2019-06-01T21:59:27.164Z,44.17
2019-06-01T22:02:00.555Z,46.70
2019-06-01T22:04:31.264Z,47.80
2019-06-01T22:07:04.505Z,44.23
2019-06-01T22:09:35.235Z,46.27
2019-06-01T22:12:06.473Z,24.80
2019-06-01T22:14:37.043Z,23.20
2019-06-01T22:17:07.657Z,19.60
2019-06-01T22:19:38.312Z,19.70
2019-06-01T22:22:11.077Z,25.43
2019-06-01T22:24:41.636Z,23.67
2019-06-01T22:27:12.110Z,31.50
2019-06-01T22:29:43.745Z,32.40
2019-06-01T22:32:14.355Z,33.77
2019-06-01T22:34:44.837Z,36.10
2019-06-01T22:37:16.722Z,29.57
2019-06-01T22:39:47.395Z,26.50
2019-06-01T22:42:17.893Z,33.17
2019-06-01T22:44:48.453Z,28.87
2019-06-01T22:47:20.334Z,27.33
2019-06-01T22:49:50.874Z,29.90
2019-06-01T22:52:22.879Z,28.40
2019-06-01T22:54:53.559Z,35.10
2019-06-01T22:57:24.373Z,32.93
2019-06-01T22:59:55.555Z,33.37
2019-06-01T23:02:26.139Z,38.50
2019-06-01T23:04:56.739Z,36.03
2019-06-01T23:07:27.345Z,40.17
2019-06-01T23:09:57.870Z,40.27
2019-06-01T23:12:29.492Z,44.63
2019-06-01T23:15:00.157Z,45.43
2019-06-01T23:17:31.932Z,41.00
2019-06-01T23:20:02.590Z,40.33
2019-06-01T23:22:35.718Z,36.67
2019-06-01T23:25:06.973Z,37.10
2019-06-01T23:27:37.531Z,39.97
2019-06-01T23:30:08.991Z,44.37
2019-06-01T23:32:39.464Z,42.50
2019-06-01T23:35:10.040Z,42.30
2019-06-01T23:37:40.546Z,40.23
2019-06-01T23:40:12.057Z,43.53
2019-06-01T23:42:42.643Z,42.77
2019-06-01T23:45:13.182Z,41.87
2019-06-01T23:47:43.643Z,47.00
2019-06-01T23:50:14.131Z,41.20
2019-06-01T23:52:44.725Z,45.93
2019-06-01T23:55:15.177Z,44.03
2019-06-01T23:57:45.718Z,43.40
